Terminal Aerodrome Forecast
Issued by NWS

Home | Current Version | Previous Version | Text Only | Print | Product List | Glossary On
Versions: 1 2 3 4 5 6 7 8 9 10 11 12 13 14 15
358
FTUS44 KLUB 242334
TAFCDS
TAF
KCDS 242334Z 2500/2524 29015G25KT P6SM FEW250
     FM250100 28014KT P6SM SKC
     FM251500 34011KT P6SM SCT060=

USA.gov is the U.S. government's official web portal to all federal, state and local government web resources and services.